sensor_id;sensor_type;location;lat;lon;timestamp;pressure;altitude;pressure_sealevel;temperature;humidity
80542;BME280;69870;51.460;8.842;2023-09-12T00:00:07;98203.28;;;19.67;77.47
80542;BME280;69870;51.460;8.842;2023-09-12T00:02:40;98199.78;;;19.63;77.41
80542;BME280;69870;51.460;8.842;2023-09-12T00:05:08;98206.94;;;19.60;77.52
80542;BME280;69870;51.460;8.842;2023-09-12T00:07:35;98200.31;;;19.54;77.47
80542;BME280;69870;51.460;8.842;2023-09-12T00:10:02;98194.06;;;19.50;77.58
80542;BME280;69870;51.460;8.842;2023-09-12T00:12:28;98201.63;;;19.46;77.95
80542;BME280;69870;51.460;8.842;2023-09-12T00:14:55;98190.63;;;19.43;78.13
80542;BME280;69870;51.460;8.842;2023-09-12T00:17:21;98197.00;;;19.40;78.15
80542;BME280;69870;51.460;8.842;2023-09-12T00:19:48;98185.16;;;19.39;77.82
80542;BME280;69870;51.460;8.842;2023-09-12T00:22:16;98203.31;;;19.37;77.99
80542;BME280;69870;51.460;8.842;2023-09-12T00:24:42;98196.22;;;19.36;78.24
80542;BME280;69870;51.460;8.842;2023-09-12T00:27:09;98193.09;;;19.34;78.65
80542;BME280;69870;51.460;8.842;2023-09-12T00:29:35;98193.13;;;19.30;78.09
80542;BME280;69870;51.460;8.842;2023-09-12T00:32:02;98190.81;;;19.29;78.47
80542;BME280;69870;51.460;8.842;2023-09-12T00:34:29;98180.59;;;19.26;78.69
80542;BME280;69870;51.460;8.842;2023-09-12T00:36:55;98178.25;;;19.24;78.57
80542;BME280;69870;51.460;8.842;2023-09-12T00:39:23;98184.59;;;19.21;78.59
80542;BME280;69870;51.460;8.842;2023-09-12T00:41:50;98181.50;;;19.16;78.68
80542;BME280;69870;51.460;8.842;2023-09-12T00:44:16;98191.78;;;19.12;78.84
80542;BME280;69870;51.460;8.842;2023-09-12T00:46:44;98188.69;;;19.10;78.59
80542;BME280;69870;51.460;8.842;2023-09-12T00:49:13;98194.63;;;19.08;78.97
80542;BME280;69870;51.460;8.842;2023-09-12T00:51:40;98183.22;;;19.06;78.69
80542;BME280;69870;51.460;8.842;2023-09-12T00:54:08;98183.22;;;19.06;79.05
80542;BME280;69870;51.460;8.842;2023-09-12T00:56:36;98187.16;;;19.05;79.18
80542;BME280;69870;51.460;8.842;2023-09-12T00:59:04;98179.31;;;19.03;79.15
80542;BME280;69870;51.460;8.842;2023-09-12T01:01:31;98173.44;;;19.01;78.85
80542;BME280;69870;51.460;8.842;2023-09-12T01:03:58;98181.69;;;19.01;79.20
80542;BME280;69870;51.460;8.842;2023-09-12T01:06:28;98172.28;;;18.99;79.40
80542;BME280;69870;51.460;8.842;2023-09-12T01:08:55;98169.16;;;18.97;79.20
80542;BME280;69870;51.460;8.842;2023-09-12T01:11:22;98175.47;;;18.94;79.33
80542;BME280;69870;51.460;8.842;2023-09-12T01:13:50;98166.84;;;18.92;79.30
80542;BME280;69870;51.460;8.842;2023-09-12T01:16:17;98164.50;;;18.90;79.38
80542;BME280;69870;51.460;8.842;2023-09-12T01:18:43;98167.66;;;18.89;79.46
80542;BME280;69870;51.460;8.842;2023-09-12T01:21:50;98155.13;;;18.84;79.35
80542;BME280;69870;51.460;8.842;2023-09-12T01:24:45;98160.63;;;18.84;79.28
80542;BME280;69870;51.460;8.842;2023-09-12T01:27:21;98161.06;;;18.83;79.13
80542;BME280;69870;51.460;8.842;2023-09-12T01:29:51;98158.28;;;18.83;79.30
80542;BME280;69870;51.460;8.842;2023-09-12T01:32:20;98159.09;;;18.83;79.70
80542;BME280;69870;51.460;8.842;2023-09-12T01:34:46;98159.09;;;18.83;79.85
80542;BME280;69870;51.460;8.842;2023-09-12T01:37:13;98168.53;;;18.82;79.41
80542;BME280;69870;51.460;8.842;2023-09-12T01:39:40;98154.75;;;18.82;79.61
80542;BME280;69870;51.460;8.842;2023-09-12T01:42:08;98158.28;;;18.83;79.43
80542;BME280;69870;51.460;8.842;2023-09-12T01:44:39;98161.06;;;18.83;79.54
80542;BME280;69870;51.460;8.842;2023-09-12T01:47:07;98161.06;;;18.83;79.63
80542;BME280;69870;51.460;8.842;2023-09-12T01:49:35;98157.50;;;18.82;79.55
80542;BME280;69870;51.460;8.842;2023-09-12T01:52:04;98159.50;;;18.82;79.67
80542;BME280;69870;51.460;8.842;2023-09-12T01:54:32;98160.25;;;18.82;79.83
80542;BME280;69870;51.460;8.842;2023-09-12T01:56:59;98152.78;;;18.83;80.00
80542;BME280;69870;51.460;8.842;2023-09-12T01:59:26;98160.25;;;18.82;79.86
80542;BME280;69870;51.460;8.842;2023-09-12T02:01:54;98163.00;;;18.82;79.70
80542;BME280;69870;51.460;8.842;2023-09-12T02:04:20;98169.31;;;18.83;79.98
80542;BME280;69870;51.460;8.842;2023-09-12T02:06:47;98157.50;;;18.82;80.00
80542;BME280;69870;51.460;8.842;2023-09-12T02:09:14;98166.63;;;18.79;80.10
80542;BME280;69870;51.460;8.842;2023-09-12T02:11:41;98174.09;;;18.79;79.94
80542;BME280;69870;51.460;8.842;2023-09-12T02:14:08;98176.44;;;18.80;80.37
80542;BME280;69870;51.460;8.842;2023-09-12T02:16:36;98182.31;;;18.82;80.60
80542;BME280;69870;51.460;8.842;2023-09-12T02:19:05;98189.41;;;18.83;79.64
80542;BME280;69870;51.460;8.842;2023-09-12T02:21:31;98194.50;;;18.85;79.88
80542;BME280;69870;51.460;8.842;2023-09-12T02:23:58;98190.13;;;18.87;80.29
80542;BME280;69870;51.460;8.842;2023-09-12T02:26:24;98187.75;;;18.89;79.99
80542;BME280;69870;51.460;8.842;2023-09-12T02:28:51;98183.03;;;18.90;80.08
80542;BME280;69870;51.460;8.842;2023-09-12T02:31:17;98185.78;;;18.90;80.39
80542;BME280;69870;51.460;8.842;2023-09-12T02:33:45;98182.59;;;18.91;80.40
80542;BME280;69870;51.460;8.842;2023-09-12T02:36:12;98190.88;;;18.91;80.29
80542;BME280;69870;51.460;8.842;2023-09-12T02:38:39;98188.53;;;18.90;80.36
80542;BME280;69870;51.460;8.842;2023-09-12T02:41:06;98193.25;;;18.89;80.12
80542;BME280;69870;51.460;8.842;2023-09-12T02:43:32;98202.31;;;18.90;80.23
80542;BME280;69870;51.460;8.842;2023-09-12T02:45:59;98201.91;;;18.91;80.55
80542;BME280;69870;51.460;8.842;2023-09-12T02:48:25;98199.13;;;18.91;80.41
80542;BME280;69870;51.460;8.842;2023-09-12T02:50:53;98203.09;;;18.90;80.17
80542;BME280;69870;51.460;8.842;2023-09-12T02:53:20;98201.16;;;18.87;80.28
80542;BME280;69870;51.460;8.842;2023-09-12T02:55:47;98196.06;;;18.86;80.59
80542;BME280;69870;51.460;8.842;2023-09-12T02:58:13;98198.03;;;18.85;80.50
80542;BME280;69870;51.460;8.842;2023-09-12T03:00:40;98201.59;;;18.82;80.43
80542;BME280;69870;51.460;8.842;2023-09-12T03:03:07;98200.84;;;18.82;80.62
80542;BME280;69870;51.460;8.842;2023-09-12T03:05:34;98202.81;;;18.81;80.57
80542;BME280;69870;51.460;8.842;2023-09-12T03:08:01;98200.88;;;18.78;80.68
80542;BME280;69870;51.460;8.842;2023-09-12T03:10:30;98183.19;;;18.76;80.45
80542;BME280;69870;51.460;8.842;2023-09-12T03:12:56;98200.50;;;18.76;80.53
80542;BME280;69870;51.460;8.842;2023-09-12T03:15:23;98200.94;;;18.71;80.56
80542;BME280;69870;51.460;8.842;2023-09-12T03:17:50;98204.91;;;18.70;80.95
80542;BME280;69870;51.460;8.842;2023-09-12T03:20:16;98208.03;;;18.72;80.66
80542;BME280;69870;51.460;8.842;2023-09-12T03:22:43;98208.84;;;18.69;81.49
80542;BME280;69870;51.460;8.842;2023-09-12T03:25:10;98198.94;;;18.75;81.29
80542;BME280;69870;51.460;8.842;2023-09-12T03:27:38;98200.88;;;18.78;81.25
80542;BME280;69870;51.460;8.842;2023-09-12T03:30:06;98194.56;;;18.78;81.59
80542;BME280;69870;51.460;8.842;2023-09-12T03:32:33;98203.97;;;18.84;81.29
80542;BME280;69870;51.460;8.842;2023-09-12T03:34:59;98208.97;;;18.92;80.88
80542;BME280;69870;51.460;8.842;2023-09-12T03:37:26;98207.75;;;18.97;81.46
80542;BME280;69870;51.460;8.842;2023-09-12T03:39:54;98201.38;;;19.00;80.88
80542;BME280;69870;51.460;8.842;2023-09-12T03:42:20;98203.75;;;19.01;81.10
80542;BME280;69870;51.460;8.842;2023-09-12T03:44:48;98203.69;;;19.05;81.25
80542;BME280;69870;51.460;8.842;2023-09-12T03:47:15;98194.25;;;19.06;81.01
80542;BME280;69870;51.460;8.842;2023-09-12T03:49:41;98196.59;;;19.08;80.78
80542;BME280;69870;51.460;8.842;2023-09-12T03:52:08;98194.19;;;19.10;80.65
80542;BME280;69870;51.460;8.842;2023-09-12T03:54:34;98191.00;;;19.11;81.01
80542;BME280;69870;51.460;8.842;2023-09-12T03:57:01;98190.25;;;19.11;80.62
80542;BME280;69870;51.460;8.842;2023-09-12T03:59:27;98178.81;;;19.12;81.09
80542;BME280;69870;51.460;8.842;2023-09-12T04:01:55;98182.34;;;19.13;80.67
80542;BME280;69870;51.460;8.842;2023-09-12T04:04:22;98188.66;;;19.13;80.72
80542;BME280;69870;51.460;8.842;2023-09-12T04:06:49;98187.00;;;19.16;80.66
80542;BME280;69870;51.460;8.842;2023-09-12T04:09:15;98190.56;;;19.16;80.41
80542;BME280;69870;51.460;8.842;2023-09-12T04:11:42;98194.47;;;19.19;80.81
80542;BME280;69870;51.460;8.842;2023-09-12T04:14:09;98201.19;;;19.18;80.08
80542;BME280;69870;51.460;8.842;2023-09-12T04:16:36;98213.78;;;19.19;80.36
80542;BME280;69870;51.460;8.842;2023-09-12T04:19:04;98208.25;;;19.19;80.71
80542;BME280;69870;51.460;8.842;2023-09-12T04:21:31;98209.06;;;19.19;80.43
80542;BME280;69870;51.460;8.842;2023-09-12T04:23:58;98206.28;;;19.19;80.48
80542;BME280;69870;51.460;8.842;2023-09-12T04:26:25;98212.22;;;19.18;80.21
80542;BME280;69870;51.460;8.842;2023-09-12T04:28:51;98202.75;;;19.19;80.41
80542;BME280;69870;51.460;8.842;2023-09-12T04:31:18;98203.13;;;19.21;80.23
80542;BME280;69870;51.460;8.842;2023-09-12T04:33:45;98204.31;;;19.20;80.78
80542;BME280;69870;51.460;8.842;2023-09-12T04:36:12;98207.06;;;19.20;80.46
80542;BME280;69870;51.460;8.842;2023-09-12T04:38:39;98208.25;;;19.19;80.47
80542;BME280;69870;51.460;8.842;2023-09-12T04:41:05;98215.00;;;19.18;80.59
80542;BME280;69870;51.460;8.842;2023-09-12T04:43:32;98221.69;;;19.17;80.36
80542;BME280;69870;51.460;8.842;2023-09-12T04:45:59;98224.44;;;19.17;80.49
80542;BME280;69870;51.460;8.842;2023-09-12T04:48:25;98229.59;;;19.15;80.78
80542;BME280;69870;51.460;8.842;2023-09-12T04:50:52;98226.03;;;19.14;80.27
80542;BME280;69870;51.460;8.842;2023-09-12T04:53:20;98233.53;;;19.14;80.50
80542;BME280;69870;51.460;8.842;2023-09-12T04:55:47;98236.66;;;19.16;80.44
80542;BME280;69870;51.460;8.842;2023-09-12T04:58:13;98234.69;;;19.16;80.39
80542;BME280;69870;51.460;8.842;2023-09-12T05:00:40;98234.28;;;19.18;80.71
80542;BME280;69870;51.460;8.842;2023-09-12T05:03:06;98230.69;;;19.21;80.75
80542;BME280;69870;51.460;8.842;2023-09-12T05:05:34;98239.31;;;19.23;80.37
80542;BME280;69870;51.460;8.842;2023-09-12T05:08:01;98238.16;;;19.24;80.73
80542;BME280;69870;51.460;8.842;2023-09-12T05:10:30;98246.41;;;19.24;80.37
80542;BME280;69870;51.460;8.842;2023-09-12T05:12:57;98249.19;;;19.24;80.59
80542;BME280;69870;51.460;8.842;2023-09-12T05:15:24;98247.97;;;19.25;80.56
80542;BME280;69870;51.460;8.842;2023-09-12T05:17:50;98255.06;;;19.26;80.52
80542;BME280;69870;51.460;8.842;2023-09-12T05:20:17;98265.66;;;19.27;80.34
80542;BME280;69870;51.460;8.842;2023-09-12T05:22:43;98266.88;;;19.26;80.15
80542;BME280;69870;51.460;8.842;2023-09-12T05:25:10;98260.16;;;19.27;80.69
80542;BME280;69870;51.460;8.842;2023-09-12T05:27:38;98265.66;;;19.27;80.27
80542;BME280;69870;51.460;8.842;2023-09-12T05:30:06;98260.94;;;19.28;80.49
80542;BME280;69870;51.460;8.842;2023-09-12T05:32:32;98260.94;;;19.28;80.70
80542;BME280;69870;51.460;8.842;2023-09-12T05:34:59;98257.75;;;19.29;80.27
80542;BME280;69870;51.460;8.842;2023-09-12T05:37:25;98259.75;;;19.29;80.28
80542;BME280;69870;51.460;8.842;2023-09-12T05:39:52;98259.75;;;19.29;80.30
80542;BME280;69870;51.460;8.842;2023-09-12T05:42:19;98263.25;;;19.33;80.39
80542;BME280;69870;51.460;8.842;2023-09-12T05:44:49;98250.66;;;19.35;80.70
80542;BME280;69870;51.460;8.842;2023-09-12T05:47:19;98245.06;;;19.39;80.00
80542;BME280;69870;51.460;8.842;2023-09-12T05:49:45;98241.50;;;19.42;80.01
80542;BME280;69870;51.460;8.842;2023-09-12T05:52:12;98236.72;;;19.46;79.96
80542;BME280;69870;51.460;8.842;2023-09-12T05:54:39;98232.69;;;19.50;80.40
80542;BME280;69870;51.460;8.842;2023-09-12T05:57:07;98224.78;;;19.52;80.24
80542;BME280;69870;51.460;8.842;2023-09-12T05:59:36;98222.81;;;19.53;80.13
80542;BME280;69870;51.460;8.842;2023-09-12T06:02:04;98205.06;;;19.54;80.12
80542;BME280;69870;51.460;8.842;2023-09-12T06:04:33;98194.38;;;19.56;79.71
80542;BME280;69870;51.460;8.842;2023-09-12T06:07:01;98197.47;;;19.61;79.72
80542;BME280;69870;51.460;8.842;2023-09-12T06:09:27;98196.56;;;19.68;79.83
80542;BME280;69870;51.460;8.842;2023-09-12T06:11:54;98208.69;;;19.74;79.06
80542;BME280;69870;51.460;8.842;2023-09-12T06:14:20;98195.63;;;19.78;79.10
80542;BME280;69870;51.460;8.842;2023-09-12T06:16:47;98205.38;;;19.86;78.93
80542;BME280;69870;51.460;8.842;2023-09-12T06:19:15;98197.34;;;19.95;78.88
80542;BME280;69870;51.460;8.842;2023-09-12T06:21:43;98195.22;;;20.03;78.99
80542;BME280;69870;51.460;8.842;2023-09-12T06:24:10;98192.66;;;20.15;78.67
80542;BME280;69870;51.460;8.842;2023-09-12T06:26:37;98200.97;;;20.38;77.73
80542;BME280;69870;51.460;8.842;2023-09-12T06:29:04;98199.13;;;20.75;77.40
80542;BME280;69870;51.460;8.842;2023-09-12T06:31:31;98193.53;;;21.17;76.16
80542;BME280;69870;51.460;8.842;2023-09-12T06:33:58;98198.84;;;21.64;74.70
80542;BME280;69870;51.460;8.842;2023-09-12T06:36:26;98197.25;;;21.99;73.38
80542;BME280;69870;51.460;8.842;2023-09-12T06:38:54;98193.19;;;22.19;72.88
80542;BME280;69870;51.460;8.842;2023-09-12T06:41:21;98195.94;;;22.35;72.71
80542;BME280;69870;51.460;8.842;2023-09-12T06:43:48;98187.53;;;22.39;72.26
80542;BME280;69870;51.460;8.842;2023-09-12T06:46:14;98198.72;;;22.35;71.96
80542;BME280;69870;51.460;8.842;2023-09-12T06:48:42;98187.16;;;22.53;71.78
80542;BME280;69870;51.460;8.842;2023-09-12T06:51:09;98194.16;;;22.74;71.04
80542;BME280;69870;51.460;8.842;2023-09-12T06:53:37;98199.31;;;22.88;70.40
80542;BME280;69870;51.460;8.842;2023-09-12T06:56:04;98187.50;;;23.12;70.18
80542;BME280;69870;51.460;8.842;2023-09-12T06:58:31;98197.75;;;23.15;69.75
80542;BME280;69870;51.460;8.842;2023-09-12T07:01:01;98192.75;;;23.23;69.44
80542;BME280;69870;51.460;8.842;2023-09-12T07:03:28;98190.25;;;23.54;68.85
80542;BME280;69870;51.460;8.842;2023-09-12T07:05:54;98185.81;;;23.94;68.23
80542;BME280;69870;51.460;8.842;2023-09-12T07:08:21;98187.53;;;24.38;66.77
80542;BME280;69870;51.460;8.842;2023-09-12T07:10:48;98172.25;;;24.55;65.75
80542;BME280;69870;51.460;8.842;2023-09-12T07:13:15;98170.31;;;24.78;65.37
80542;BME280;69870;51.460;8.842;2023-09-12T07:15:42;98182.22;;;25.00;64.93
80542;BME280;69870;51.460;8.842;2023-09-12T07:18:08;98177.03;;;24.89;65.10
80542;BME280;69870;51.460;8.842;2023-09-12T07:20:35;98177.47;;;24.53;65.97
80542;BME280;69870;51.460;8.842;2023-09-12T07:23:02;98179.91;;;24.30;66.57
80542;BME280;69870;51.460;8.842;2023-09-12T07:25:28;98186.47;;;23.98;67.08
80542;BME280;69870;51.460;8.842;2023-09-12T07:27:56;98179.72;;;23.74;67.91
80542;BME280;69870;51.460;8.842;2023-09-12T07:30:23;98170.28;;;23.59;68.42
80542;BME280;69870;51.460;8.842;2023-09-12T07:32:49;98170.59;;;23.48;68.37
80542;BME280;69870;51.460;8.842;2023-09-12T07:35:17;98172.78;;;23.28;68.90
80542;BME280;69870;51.460;8.842;2023-09-12T07:37:45;98177.09;;;23.16;69.45
80542;BME280;69870;51.460;8.842;2023-09-12T07:40:12;98174.63;;;23.18;69.80
80542;BME280;69870;51.460;8.842;2023-09-12T07:42:38;98172.00;;;23.27;69.18
80542;BME280;69870;51.460;8.842;2023-09-12T07:45:07;98168.94;;;23.51;68.65
80542;BME280;69870;51.460;8.842;2023-09-12T07:47:34;98165.25;;;24.04;67.18
80542;BME280;69870;51.460;8.842;2023-09-12T07:50:01;98170.53;;;24.70;65.56
80542;BME280;69870;51.460;8.842;2023-09-12T07:52:29;98166.09;;;25.47;63.63
80542;BME280;69870;51.460;8.842;2023-09-12T07:54:59;98166.63;;;25.94;61.82
80542;BME280;69870;51.460;8.842;2023-09-12T07:57:26;98175.97;;;26.09;61.55
80542;BME280;69870;51.460;8.842;2023-09-12T07:59:52;98180.03;;;25.78;62.11
80542;BME280;69870;51.460;8.842;2023-09-12T08:02:20;98175.81;;;25.64;62.48
80542;BME280;69870;51.460;8.842;2023-09-12T08:04:47;98173.97;;;25.70;62.44
80542;BME280;69870;51.460;8.842;2023-09-12T08:07:15;98177.56;;;26.20;60.88
80542;BME280;69870;51.460;8.842;2023-09-12T08:09:49;98172.50;;;25.96;60.67
80542;BME280;69870;51.460;8.842;2023-09-12T08:12:16;98177.44;;;25.53;61.76
80542;BME280;69870;51.460;8.842;2023-09-12T08:14:43;98180.38;;;25.27;62.74
80542;BME280;69870;51.460;8.842;2023-09-12T08:17:10;98189.28;;;25.13;62.92
80542;BME280;69870;51.460;8.842;2023-09-12T08:19:38;98196.63;;;25.07;63.39
80542;BME280;69870;51.460;8.842;2023-09-12T08:22:06;98204.75;;;24.93;63.69
80542;BME280;69870;51.460;8.842;2023-09-12T08:24:35;98219.88;;;24.92;64.05
80542;BME280;69870;51.460;8.842;2023-09-12T08:27:02;98222.97;;;24.94;63.65
80542;BME280;69870;51.460;8.842;2023-09-12T08:29:29;98223.94;;;24.78;63.73
80542;BME280;69870;51.460;8.842;2023-09-12T08:31:56;98229.38;;;24.69;64.26
80542;BME280;69870;51.460;8.842;2023-09-12T08:34:23;98226.41;;;24.63;64.61
80542;BME280;69870;51.460;8.842;2023-09-12T08:36:51;98234.91;;;24.60;64.69
80542;BME280;69870;51.460;8.842;2023-09-12T08:39:24;98248.03;;;24.59;64.27
80542;BME280;69870;51.460;8.842;2023-09-12T08:41:51;98250.16;;;24.55;64.67
80542;BME280;69870;51.460;8.842;2023-09-12T08:44:19;98257.63;;;24.46;64.91
80542;BME280;69870;51.460;8.842;2023-09-12T08:46:47;98274.75;;;24.44;64.70
80542;BME280;69870;51.460;8.842;2023-09-12T08:49:14;98278.09;;;24.39;64.78
80542;BME280;69870;51.460;8.842;2023-09-12T08:51:41;98284.44;;;24.40;65.05
80542;BME280;69870;51.460;8.842;2023-09-12T08:54:09;98290.88;;;24.49;64.90
80542;BME280;69870;51.460;8.842;2023-09-12T08:56:39;98299.63;;;24.60;64.71
80542;BME280;69870;51.460;8.842;2023-09-12T08:59:07;98304.63;;;24.78;64.18
80542;BME280;69870;51.460;8.842;2023-09-12T09:01:34;98302.81;;;24.97;64.09
80542;BME280;69870;51.460;8.842;2023-09-12T09:04:02;98288.97;;;25.06;63.68
80542;BME280;69870;51.460;8.842;2023-09-12T09:06:30;98291.50;;;25.13;63.61
80542;BME280;69870;51.460;8.842;2023-09-12T09:08:58;98288.81;;;25.22;63.54
80542;BME280;69870;51.460;8.842;2023-09-12T09:11:27;98297.34;;;25.27;63.11
80542;BME280;69870;51.460;8.842;2023-09-12T09:13:54;98289.44;;;25.26;62.60
80542;BME280;69870;51.460;8.842;2023-09-12T09:16:22;98295.28;;;25.19;62.78
80542;BME280;69870;51.460;8.842;2023-09-12T09:18:50;98297.84;;;25.48;61.64
80542;BME280;69870;51.460;8.842;2023-09-12T09:21:17;98283.44;;;25.71;61.03
80542;BME280;69870;51.460;8.842;2023-09-12T09:23:45;98288.22;;;25.70;60.81
80542;BME280;69870;51.460;8.842;2023-09-12T09:26:11;98269.97;;;26.00;59.37
80542;BME280;69870;51.460;8.842;2023-09-12T09:28:39;98265.78;;;26.35;58.23
80542;BME280;69870;51.460;8.842;2023-09-12T09:31:10;98270.78;;;26.58;57.33
80542;BME280;69870;51.460;8.842;2023-09-12T09:33:37;98266.38;;;27.06;56.35
80542;BME280;69870;51.460;8.842;2023-09-12T09:36:06;98270.22;;;28.14;54.02
80542;BME280;69870;51.460;8.842;2023-09-12T09:38:34;98270.69;;;29.16;51.97
80542;BME280;69870;51.460;8.842;2023-09-12T09:41:03;98270.69;;;29.16;51.97
80542;BME280;69870;51.460;8.842;2023-09-12T09:43:30;98262.88;;;30.22;48.34
80542;BME280;69870;51.460;8.842;2023-09-12T09:45:58;98266.63;;;30.49;47.70
80542;BME280;69870;51.460;8.842;2023-09-12T09:48:26;98263.56;;;30.67;46.95
80542;BME280;69870;51.460;8.842;2023-09-12T09:50:53;98259.91;;;30.81;46.76
80542;BME280;69870;51.460;8.842;2023-09-12T09:53:26;98252.41;;;31.12;46.12
80542;BME280;69870;51.460;8.842;2023-09-12T09:56:07;98249.66;;;31.64;45.40
80542;BME280;69870;51.460;8.842;2023-09-12T09:58:34;69286.63;;;-142.42;100.00
80542;BME280;69870;51.460;8.842;2023-09-12T10:01:05;98249.66;;;31.64;45.40
80542;BME280;69870;51.460;8.842;2023-09-12T10:03:34;98230.47;;;32.78;42.92
80542;BME280;69870;51.460;8.842;2023-09-12T10:06:04;98229.91;;;33.28;42.47
80542;BME280;69870;51.460;8.842;2023-09-12T10:08:32;98227.66;;;33.65;42.01
80542;BME280;69870;51.460;8.842;2023-09-12T10:10:58;98228.69;;;33.56;41.55
80542;BME280;69870;51.460;8.842;2023-09-12T10:13:26;98228.13;;;33.24;42.37
80542;BME280;69870;51.460;8.842;2023-09-12T10:15:58;98219.13;;;33.32;41.88
80542;BME280;69870;51.460;8.842;2023-09-12T10:18:34;98223.28;;;33.42;41.85
80542;BME280;69870;51.460;8.842;2023-09-12T10:21:05;98223.63;;;32.90;42.51
80542;BME280;69870;51.460;8.842;2023-09-12T10:23:37;98221.66;;;32.54;42.71
80542;BME280;69870;51.460;8.842;2023-09-12T10:26:10;98220.06;;;32.05;43.70
80542;BME280;69870;51.460;8.842;2023-09-12T10:28:38;98235.41;;;31.73;44.56
80542;BME280;69870;51.460;8.842;2023-09-12T10:31:07;98236.53;;;31.55;44.90
80542;BME280;69870;51.460;8.842;2023-09-12T10:33:36;98242.88;;;31.50;45.42
80542;BME280;69870;51.460;8.842;2023-09-12T10:36:03;98248.53;;;30.70;46.25
80542;BME280;69870;51.460;8.842;2023-09-12T10:38:32;98260.72;;;29.97;47.33
80542;BME280;69870;51.460;8.842;2023-09-12T10:41:00;98263.00;;;29.40;48.44
80542;BME280;69870;51.460;8.842;2023-09-12T10:43:28;98266.44;;;28.82;49.12
80542;BME280;69870;51.460;8.842;2023-09-12T10:45:55;98256.56;;;28.40;49.95
80542;BME280;69870;51.460;8.842;2023-09-12T10:48:23;98269.91;;;28.12;50.52
80542;BME280;69870;51.460;8.842;2023-09-12T10:50:50;98254.25;;;27.96;51.11
80542;BME280;69870;51.460;8.842;2023-09-12T10:53:18;98260.09;;;27.75;50.57
80542;BME280;69870;51.460;8.842;2023-09-12T10:55:58;98247.44;;;27.37;51.78
80542;BME280;69870;51.460;8.842;2023-09-12T10:58:25;98243.69;;;27.22;51.86
80542;BME280;69870;51.460;8.842;2023-09-12T11:01:23;98244.03;;;27.06;51.95
80542;BME280;69870;51.460;8.842;2023-09-12T11:03:51;98241.22;;;26.97;51.92
80542;BME280;69870;51.460;8.842;2023-09-12T11:06:23;98244.94;;;26.85;52.32
80542;BME280;69870;51.460;8.842;2023-09-12T11:09:24;98247.13;;;26.90;52.07
80542;BME280;69870;51.460;8.842;2023-09-12T11:11:55;98247.13;;;26.99;52.13
80542;BME280;69870;51.460;8.842;2023-09-12T11:14:22;98245.13;;;26.91;52.16
80542;BME280;69870;51.460;8.842;2023-09-12T11:17:20;98240.31;;;26.82;52.81
80542;BME280;69870;51.460;8.842;2023-09-12T11:19:48;98240.25;;;26.73;53.02
80542;BME280;69870;51.460;8.842;2023-09-12T11:22:23;98238.69;;;26.72;53.09
80542;BME280;69870;51.460;8.842;2023-09-12T11:24:50;98240.59;;;26.75;53.34
80542;BME280;69870;51.460;8.842;2023-09-12T11:27:17;98228.97;;;26.76;52.98
80542;BME280;69870;51.460;8.842;2023-09-12T11:29:43;98222.91;;;26.78;53.38
80542;BME280;69870;51.460;8.842;2023-09-12T11:32:10;98218.28;;;26.84;53.07
80542;BME280;69870;51.460;8.842;2023-09-12T11:34:38;98217.19;;;26.81;52.53
80542;BME280;69870;51.460;8.842;2023-09-12T11:37:05;98225.66;;;26.69;52.66
80542;BME280;69870;51.460;8.842;2023-09-12T11:39:34;98226.91;;;26.68;52.82
80542;BME280;69870;51.460;8.842;2023-09-12T11:42:02;98229.69;;;26.59;52.14
80542;BME280;69870;51.460;8.842;2023-09-12T11:44:30;98221.91;;;26.45;52.65
80542;BME280;69870;51.460;8.842;2023-09-12T11:46:59;98228.13;;;26.40;52.56
80542;BME280;69870;51.460;8.842;2023-09-12T11:49:35;98223.00;;;26.38;52.53
80542;BME280;69870;51.460;8.842;2023-09-12T11:52:01;98218.97;;;26.39;52.49
80542;BME280;69870;51.460;8.842;2023-09-12T11:54:29;98206.13;;;26.42;52.60
80542;BME280;69870;51.460;8.842;2023-09-12T11:56:58;98211.38;;;26.40;52.89
80542;BME280;69870;51.460;8.842;2023-09-12T11:59:25;98217.25;;;26.33;52.76
80542;BME280;69870;51.460;8.842;2023-09-12T12:01:53;98210.66;;;26.08;53.45
80542;BME280;69870;51.460;8.842;2023-09-12T12:04:20;98215.03;;;26.18;53.47
80542;BME280;69870;51.460;8.842;2023-09-12T12:06:47;98213.84;;;26.29;52.76
80542;BME280;69870;51.460;8.842;2023-09-12T12:09:14;98202.84;;;26.34;52.65
80542;BME280;69870;51.460;8.842;2023-09-12T12:11:43;98199.91;;;26.38;52.80
80542;BME280;69870;51.460;8.842;2023-09-12T12:14:13;98197.88;;;26.38;52.99
80542;BME280;69870;51.460;8.842;2023-09-12T12:16:40;98189.97;;;26.37;52.60
80542;BME280;69870;51.460;8.842;2023-09-12T12:19:07;98203.94;;;26.37;52.75
80542;BME280;69870;51.460;8.842;2023-09-12T12:21:34;98198.63;;;26.21;53.12
80542;BME280;69870;51.460;8.842;2023-09-12T12:24:02;98194.31;;;26.29;53.18
80542;BME280;69870;51.460;8.842;2023-09-12T12:26:30;98192.16;;;26.33;53.19
80542;BME280;69870;51.460;8.842;2023-09-12T12:28:58;98192.28;;;26.38;53.21
80542;BME280;69870;51.460;8.842;2023-09-12T12:31:27;98177.59;;;26.38;53.32
80542;BME280;69870;51.460;8.842;2023-09-12T12:33:54;98186.09;;;26.34;53.48
80542;BME280;69870;51.460;8.842;2023-09-12T12:36:21;98167.34;;;26.35;53.08
80542;BME280;69870;51.460;8.842;2023-09-12T12:38:49;98165.63;;;26.19;53.32
80542;BME280;69870;51.460;8.842;2023-09-12T12:41:24;98173.06;;;26.31;53.07
80542;BME280;69870;51.460;8.842;2023-09-12T12:43:52;98168.75;;;26.39;52.81
80542;BME280;69870;51.460;8.842;2023-09-12T12:46:19;98156.97;;;26.35;53.22
80542;BME280;69870;51.460;8.842;2023-09-12T12:48:48;98155.09;;;26.41;53.49
80542;BME280;69870;51.460;8.842;2023-09-12T12:51:16;98153.53;;;26.40;53.50
80542;BME280;69870;51.460;8.842;2023-09-12T12:53:45;98158.19;;;26.34;53.86
80542;BME280;69870;51.460;8.842;2023-09-12T12:56:13;98157.72;;;26.36;53.94
80542;BME280;69870;51.460;8.842;2023-09-12T12:58:45;98153.53;;;26.40;53.63
80542;BME280;69870;51.460;8.842;2023-09-12T13:01:12;98152.78;;;26.40;53.77
80542;BME280;69870;51.460;8.842;2023-09-12T13:03:40;98156.19;;;26.44;53.83